This is the latest recevied weather packets stored in our database for station/object KC3ROS. If no packets are shown the sender has not sent any weather packets the latest 10 day(s).
| Time | Temp. | Humidity | Pressure | Rain* | Wind** | Luminosity | Snow |
|---|---|---|---|---|---|---|---|
| 1777074511 | 19.44° C | 74% | 1006.7 hPa | 3.56 mm | - | 6 W/m² | - |
| 1777074207 | 19.44° C | 75% | 1006.6 hPa | 1.78 mm | - | 7 W/m² | - |
| 1777073904 | 20.56° C | 65% | 1006.6 hPa | 0 mm | - | 9 W/m² | - |
| 1777073600 | 20.56° C | 62% | 1006.5 hPa | 0 mm | - | 12 W/m² | - |
| 1777073295 | 20.56° C | 63% | 1006.4 hPa | 0 mm | - | 14 W/m² | - |
| 1777072991 | 20.56° C | 64% | 1006.3 hPa | 0 mm | - | 14 W/m² | - |
| 1777072688 | 21.67° C | 63% | 1006.6 hPa | 0 mm | - | 13 W/m² | - |
| 1777072386 | 22.78° C | 56% | 1006.4 hPa | 0 mm | - | 8 W/m² | - |
| 1777072086 | 23.89° C | 48% | 1006.4 hPa | 0 mm | - | 6 W/m² | - |
| 1777071782 | 24.44° C | 47% | 1006.2 hPa | 0 mm | - | 8 W/m² | - |
| 1777071479 | 24.44° C | 46% | 1006.3 hPa | 0 mm | - | 18 W/m² | - |
| 1777071178 | 24.44° C | 45% | 1006.2 hPa | 0 mm | - | 30 W/m² | - |
| 1777070874 | 25° C | 45% | 1006.2 hPa | 0 mm | - | 37 W/m² | - |
| 1777070572 | 25° C | 45% | 1006.3 hPa | 0 mm | - | 41 W/m² | - |
| 1777070271 | 25° C | 45% | 1006.4 hPa | 0 mm | - | 47 W/m² | - |
| 1777069965 | 25° C | 45% | 1006.2 hPa | 0 mm | - | 59 W/m² | - |
| 1777069665 | 25° C | 46% | 1006.1 hPa | 0 mm | - | 78 W/m² | - |
| 1777069361 | 25° C | 46% | 1006.3 hPa | 0 mm | - | 83 W/m² | - |
| 1777069058 | 25° C | 44% | 1006.1 hPa | 0 mm | - | 79 W/m² | - |
| 1777068754 | 25° C | 44% | 1006.1 hPa | 0 mm | - | 85 W/m² | - |
| 1777068449 | 25° C | 44% | 1006.4 hPa | 0 mm | - | 85 W/m² | - |
| 1777068149 | 25.56° C | 43% | 1006.1 hPa | 0 mm | - | 97 W/m² | - |
| 1777067844 | 25.56° C | 44% | 1006.1 hPa | 0 mm | - | 99 W/m² | - |
| 1777067542 | 26.11° C | 42% | 1006.1 hPa | 0 mm | - | 110 W/m² | - |
| 1777067241 | 26.11° C | 42% | 1006 hPa | 0 mm | - | 173 W/m² | - |
* Rain latest hour (hover to see other rain measurements)
** Current wind speed in m/s (hover to see current wind gust speed)